sensor_id;sensor_type;location;lat;lon;timestamp;pressure;altitude;pressure_sealevel;temperature;humidity
69772;BME280;57046;45.988;18.664;2022-11-20T00:00:22;100200.03;;;7.16;96.29
69772;BME280;57046;45.988;18.664;2022-11-20T00:02:48;100175.84;;;7.16;95.60
69772;BME280;57046;45.988;18.664;2022-11-20T00:05:13;100154.81;;;6.96;96.35
69772;BME280;57046;45.988;18.664;2022-11-20T00:07:38;100159.09;;;7.20;95.98
69772;BME280;57046;45.988;18.664;2022-11-20T00:10:04;100176.88;;;7.07;96.24
69772;BME280;57046;45.988;18.664;2022-11-20T00:12:30;100182.28;;;6.93;96.62
69772;BME280;57046;45.988;18.664;2022-11-20T00:14:55;100173.94;;;6.81;96.50
69772;BME280;57046;45.988;18.664;2022-11-20T00:17:20;100189.41;;;6.98;96.40
69772;BME280;57046;45.988;18.664;2022-11-20T00:19:45;100190.03;;;6.81;96.37
69772;BME280;57046;45.988;18.664;2022-11-20T00:22:11;100186.56;;;6.67;97.00
69772;BME280;57046;45.988;18.664;2022-11-20T00:24:36;100208.56;;;6.55;97.26
69772;BME280;57046;45.988;18.664;2022-11-20T00:27:01;100192.84;;;6.76;97.11
69772;BME280;57046;45.988;18.664;2022-11-20T00:29:27;100175.06;;;6.67;96.82
69772;BME280;57046;45.988;18.664;2022-11-20T00:31:52;100159.44;;;6.69;97.21
69772;BME280;57046;45.988;18.664;2022-11-20T00:34:18;100157.38;;;6.65;96.66
69772;BME280;57046;45.988;18.664;2022-11-20T00:36:44;100153.25;;;6.82;96.46
69772;BME280;57046;45.988;18.664;2022-11-20T00:39:09;100151.97;;;6.79;96.31
69772;BME280;57046;45.988;18.664;2022-11-20T00:41:34;100152.34;;;6.86;96.78
69772;BME280;57046;45.988;18.664;2022-11-20T00:44:00;100158.59;;;6.46;98.40
69772;BME280;57046;45.988;18.664;2022-11-20T00:46:26;100179.72;;;6.75;97.20
69772;BME280;57046;45.988;18.664;2022-11-20T00:48:52;100186.38;;;6.77;97.18
69772;BME280;57046;45.988;18.664;2022-11-20T00:51:19;100190.84;;;6.82;96.89
69772;BME280;57046;45.988;18.664;2022-11-20T00:53:46;100189.19;;;6.58;97.27
69772;BME280;57046;45.988;18.664;2022-11-20T00:56:14;100204.47;;;6.85;96.57
69772;BME280;57046;45.988;18.664;2022-11-20T00:58:41;100204.41;;;6.63;96.72
69772;BME280;57046;45.988;18.664;2022-11-20T01:01:15;100190.28;;;6.57;96.81
69772;BME280;57046;45.988;18.664;2022-11-20T01:03:45;100177.66;;;6.58;96.46
69772;BME280;57046;45.988;18.664;2022-11-20T01:06:15;100172.00;;;6.46;97.47
69772;BME280;57046;45.988;18.664;2022-11-20T01:08:41;100192.06;;;6.62;96.37
69772;BME280;57046;45.988;18.664;2022-11-20T01:11:09;100192.75;;;6.40;96.32
69772;BME280;57046;45.988;18.664;2022-11-20T01:13:35;100210.25;;;6.24;97.76
69772;BME280;57046;45.988;18.664;2022-11-20T01:18:36;100196.53;;;6.12;97.90
69772;BME280;57046;45.988;18.664;2022-11-20T01:21:15;100203.28;;;6.37;97.06
69772;BME280;57046;45.988;18.664;2022-11-20T01:23:42;100197.63;;;6.25;97.41
69772;BME280;57046;45.988;18.664;2022-11-20T01:26:17;100207.09;;;6.22;97.50
69772;BME280;57046;45.988;18.664;2022-11-20T01:28:43;100213.53;;;6.21;97.29
69772;BME280;57046;45.988;18.664;2022-11-20T01:31:31;100215.59;;;6.10;97.68
69772;BME280;57046;45.988;18.664;2022-11-20T01:34:00;100217.41;;;6.15;98.38
69772;BME280;57046;45.988;18.664;2022-11-20T01:36:28;100202.75;;;5.94;98.27
69772;BME280;57046;45.988;18.664;2022-11-20T01:38:56;100211.84;;;6.11;98.25
69772;BME280;57046;45.988;18.664;2022-11-20T01:41:23;100217.28;;;6.06;98.29
69772;BME280;57046;45.988;18.664;2022-11-20T01:43:48;100204.38;;;6.08;97.35
69772;BME280;57046;45.988;18.664;2022-11-20T01:51:38;100174.06;;;5.94;98.13
69772;BME280;57046;45.988;18.664;2022-11-20T01:54:08;100178.84;;;5.97;98.41
69772;BME280;57046;45.988;18.664;2022-11-20T01:56:38;100176.63;;;5.99;98.24
69772;BME280;57046;45.988;18.664;2022-11-20T01:59:07;100168.13;;;6.11;97.83
69772;BME280;57046;45.988;18.664;2022-11-20T02:01:33;100180.53;;;6.34;97.41
69772;BME280;57046;45.988;18.664;2022-11-20T02:03:59;100184.63;;;6.32;97.40
69772;BME280;57046;45.988;18.664;2022-11-20T02:06:28;100184.50;;;6.23;97.11
69772;BME280;57046;45.988;18.664;2022-11-20T02:08:54;100191.88;;;6.18;97.94
69772;BME280;57046;45.988;18.664;2022-11-20T02:11:20;100204.38;;;6.08;97.51
69772;BME280;57046;45.988;18.664;2022-11-20T02:13:46;100198.84;;;6.19;96.81
69772;BME280;57046;45.988;18.664;2022-11-20T02:16:24;100223.88;;;6.28;97.21
69772;BME280;57046;45.988;18.664;2022-11-20T02:18:51;100200.81;;;6.27;96.04
69772;BME280;57046;45.988;18.664;2022-11-20T02:26:26;100209.16;;;6.11;97.00
69772;BME280;57046;45.988;18.664;2022-11-20T02:28:53;100189.38;;;6.07;96.98
69772;BME280;57046;45.988;18.664;2022-11-20T02:31:19;100197.69;;;6.06;97.65
69772;BME280;57046;45.988;18.664;2022-11-20T02:33:44;100193.13;;;6.06;98.07
69772;BME280;57046;45.988;18.664;2022-11-20T02:36:11;100193.84;;;5.98;97.63
69772;BME280;57046;45.988;18.664;2022-11-20T02:38:39;100190.19;;;6.08;97.54
69772;BME280;57046;45.988;18.664;2022-11-20T02:41:05;100191.19;;;6.26;95.98
69772;BME280;57046;45.988;18.664;2022-11-20T02:43:30;100195.22;;;5.96;97.73
69772;BME280;57046;45.988;18.664;2022-11-20T02:45:55;100201.38;;;5.96;97.47
69772;BME280;57046;45.988;18.664;2022-11-20T02:48:21;100193.72;;;5.90;97.62
69772;BME280;57046;45.988;18.664;2022-11-20T02:50:46;100199.69;;;5.68;98.91
69772;BME280;57046;45.988;18.664;2022-11-20T02:53:11;100195.06;;;5.55;99.87
69772;BME280;57046;45.988;18.664;2022-11-20T02:55:37;100177.31;;;5.59;99.30
69772;BME280;57046;45.988;18.664;2022-11-20T02:58:02;100189.00;;;5.82;99.00
69772;BME280;57046;45.988;18.664;2022-11-20T03:00:27;100169.44;;;5.81;97.74
69772;BME280;57046;45.988;18.664;2022-11-20T03:02:53;100170.88;;;5.92;97.75
69772;BME280;57046;45.988;18.664;2022-11-20T03:05:18;100179.81;;;5.88;97.53
69772;BME280;57046;45.988;18.664;2022-11-20T03:07:43;100186.38;;;5.63;99.05
69772;BME280;57046;45.988;18.664;2022-11-20T03:10:09;100163.59;;;5.47;99.17
69772;BME280;57046;45.988;18.664;2022-11-20T03:12:34;100140.00;;;5.62;98.58
69772;BME280;57046;45.988;18.664;2022-11-20T03:15:00;100120.72;;;5.47;98.38
69772;BME280;57046;45.988;18.664;2022-11-20T03:17:25;100130.59;;;5.33;98.77
69772;BME280;57046;45.988;18.664;2022-11-20T03:19:50;100134.94;;;5.47;98.71
69772;BME280;57046;45.988;18.664;2022-11-20T03:22:16;100122.28;;;5.48;99.20
69772;BME280;57046;45.988;18.664;2022-11-20T03:24:41;100111.25;;;5.36;98.81
69772;BME280;57046;45.988;18.664;2022-11-20T03:27:06;100141.56;;;5.50;98.74
69772;BME280;57046;45.988;18.664;2022-11-20T03:29:31;100134.78;;;5.39;97.75
69772;BME280;57046;45.988;18.664;2022-11-20T03:31:57;100143.91;;;5.38;98.00
69772;BME280;57046;45.988;18.664;2022-11-20T03:34:22;100159.25;;;5.51;97.44
69772;BME280;57046;45.988;18.664;2022-11-20T03:36:47;100168.38;;;5.50;97.30
69772;BME280;57046;45.988;18.664;2022-11-20T03:39:13;100170.66;;;5.56;97.82
69772;BME280;57046;45.988;18.664;2022-11-20T03:41:40;100180.81;;;5.59;97.68
69772;BME280;57046;45.988;18.664;2022-11-20T03:44:08;100172.75;;;5.59;96.53
69772;BME280;57046;45.988;18.664;2022-11-20T03:46:33;100164.19;;;5.44;97.56
69772;BME280;57046;45.988;18.664;2022-11-20T03:48:59;100154.84;;;5.41;97.78
69772;BME280;57046;45.988;18.664;2022-11-20T03:51:29;100161.13;;;5.50;97.71
69772;BME280;57046;45.988;18.664;2022-11-20T03:53:57;100141.66;;;5.45;96.65
69772;BME280;57046;45.988;18.664;2022-11-20T03:56:29;100128.00;;;5.28;97.59
69772;BME280;57046;45.988;18.664;2022-11-20T03:58:55;100135.09;;;5.37;97.17
69772;BME280;57046;45.988;18.664;2022-11-20T04:01:23;100145.94;;;5.46;96.90
69772;BME280;57046;45.988;18.664;2022-11-20T04:03:49;100154.78;;;5.28;97.74
69772;BME280;57046;45.988;18.664;2022-11-20T04:06:19;100147.91;;;5.22;97.56
69772;BME280;57046;45.988;18.664;2022-11-20T04:08:45;100182.53;;;5.37;96.74
69772;BME280;57046;45.988;18.664;2022-11-20T04:11:18;100193.75;;;5.20;97.96
69772;BME280;57046;45.988;18.664;2022-11-20T04:13:52;100191.56;;;5.41;97.22
69772;BME280;57046;45.988;18.664;2022-11-20T04:16:18;100166.38;;;5.55;95.72
69772;BME280;57046;45.988;18.664;2022-11-20T04:18:44;100133.16;;;5.56;95.98
69772;BME280;57046;45.988;18.664;2022-11-20T04:21:10;100140.44;;;5.37;95.59
69772;BME280;57046;45.988;18.664;2022-11-20T04:23:35;100153.97;;;5.46;95.94
69772;BME280;57046;45.988;18.664;2022-11-20T04:26:09;100166.78;;;5.49;95.67
69772;BME280;57046;45.988;18.664;2022-11-20T04:28:36;100166.53;;;5.13;96.92
69772;BME280;57046;45.988;18.664;2022-11-20T04:31:10;100169.94;;;5.19;96.64
69772;BME280;57046;45.988;18.664;2022-11-20T04:33:36;100158.03;;;5.43;95.43
69772;BME280;57046;45.988;18.664;2022-11-20T04:36:18;100150.22;;;5.28;95.27
69772;BME280;57046;45.988;18.664;2022-11-20T04:38:44;100169.94;;;5.37;95.81
69772;BME280;57046;45.988;18.664;2022-11-20T04:41:22;100153.09;;;5.50;95.85
69772;BME280;57046;45.988;18.664;2022-11-20T04:43:49;100150.97;;;5.34;95.60
69772;BME280;57046;45.988;18.664;2022-11-20T04:46:16;100131.19;;;5.30;95.50
69772;BME280;57046;45.988;18.664;2022-11-20T04:48:41;100144.22;;;5.36;95.90
69772;BME280;57046;45.988;18.664;2022-11-20T04:51:06;100132.31;;;4.91;97.27
69772;BME280;57046;45.988;18.664;2022-11-20T04:53:32;100123.06;;;4.84;97.20
69772;BME280;57046;45.988;18.664;2022-11-20T04:56:01;100148.09;;;4.93;97.32
69772;BME280;57046;45.988;18.664;2022-11-20T04:58:26;100137.31;;;5.17;96.73
69772;BME280;57046;45.988;18.664;2022-11-20T05:00:51;100136.56;;;5.11;97.15
69772;BME280;57046;45.988;18.664;2022-11-20T05:03:17;100132.28;;;5.29;96.15
69772;BME280;57046;45.988;18.664;2022-11-20T05:05:42;100139.50;;;5.28;95.81
69772;BME280;57046;45.988;18.664;2022-11-20T05:08:07;100157.03;;;5.21;96.53
69772;BME280;57046;45.988;18.664;2022-11-20T05:10:33;100148.75;;;5.03;96.22
69772;BME280;57046;45.988;18.664;2022-11-20T05:12:58;100165.97;;;5.16;96.15
69772;BME280;57046;45.988;18.664;2022-11-20T05:15:23;100158.19;;;5.14;95.41
69772;BME280;57046;45.988;18.664;2022-11-20T05:17:49;100178.50;;;5.34;95.36
69772;BME280;57046;45.988;18.664;2022-11-20T05:20:15;100174.44;;;5.23;95.95
69772;BME280;57046;45.988;18.664;2022-11-20T05:22:41;100176.38;;;5.18;96.26
69772;BME280;57046;45.988;18.664;2022-11-20T05:25:07;100174.28;;;5.14;96.22
69772;BME280;57046;45.988;18.664;2022-11-20T05:27:32;100176.47;;;5.12;96.45
69772;BME280;57046;45.988;18.664;2022-11-20T05:29:57;100176.38;;;5.18;95.89
69772;BME280;57046;45.988;18.664;2022-11-20T05:32:22;100173.84;;;5.26;95.76
69772;BME280;57046;45.988;18.664;2022-11-20T05:34:48;100158.63;;;5.22;95.32
69772;BME280;57046;45.988;18.664;2022-11-20T05:37:13;100130.19;;;5.07;96.67
69772;BME280;57046;45.988;18.664;2022-11-20T05:39:38;100129.13;;;5.08;96.01
69772;BME280;57046;45.988;18.664;2022-11-20T05:42:04;100126.59;;;5.17;96.01
69772;BME280;57046;45.988;18.664;2022-11-20T05:44:29;100145.41;;;5.11;95.35
69772;BME280;57046;45.988;18.664;2022-11-20T05:46:54;100136.88;;;4.91;96.01
69772;BME280;57046;45.988;18.664;2022-11-20T05:49:20;100174.19;;;5.01;96.16
69772;BME280;57046;45.988;18.664;2022-11-20T05:51:45;100189.31;;;5.10;95.58
69772;BME280;57046;45.988;18.664;2022-11-20T05:54:10;100194.28;;;5.03;96.36
69772;BME280;57046;45.988;18.664;2022-11-20T05:56:35;100184.63;;;5.02;96.37
69772;BME280;57046;45.988;18.664;2022-11-20T05:59:01;100188.56;;;5.10;95.90
69772;BME280;57046;45.988;18.664;2022-11-20T06:01:26;100155.53;;;5.14;94.67
69772;BME280;57046;45.988;18.664;2022-11-20T06:03:53;100166.38;;;5.23;95.60
69772;BME280;57046;45.988;18.664;2022-11-20T06:06:19;100158.94;;;5.01;97.04
69772;BME280;57046;45.988;18.664;2022-11-20T06:08:45;100181.56;;;5.28;95.93
69772;BME280;57046;45.988;18.664;2022-11-20T06:11:12;100196.03;;;5.45;95.59
69772;BME280;57046;45.988;18.664;2022-11-20T06:13:38;100198.38;;;5.33;94.83
69772;BME280;57046;45.988;18.664;2022-11-20T06:16:04;100200.47;;;5.18;95.13
69772;BME280;57046;45.988;18.664;2022-11-20T06:18:29;100206.53;;;5.42;94.10
69772;BME280;57046;45.988;18.664;2022-11-20T06:21:20;100209.94;;;5.29;93.69
69772;BME280;57046;45.988;18.664;2022-11-20T06:23:45;100235.56;;;5.53;93.91
69772;BME280;57046;45.988;18.664;2022-11-20T06:26:22;100225.28;;;5.42;94.77
69772;BME280;57046;45.988;18.664;2022-11-20T06:28:47;100219.66;;;5.43;94.18
69772;BME280;57046;45.988;18.664;2022-11-20T06:31:16;100211.34;;;5.26;95.15
69772;BME280;57046;45.988;18.664;2022-11-20T06:33:42;100213.78;;;5.41;95.49
69772;BME280;57046;45.988;18.664;2022-11-20T06:36:08;100191.50;;;5.08;97.10
69772;BME280;57046;45.988;18.664;2022-11-20T06:38:34;100207.50;;;5.32;96.56
69772;BME280;57046;45.988;18.664;2022-11-20T06:41:00;100194.03;;;5.37;94.88
69772;BME280;57046;45.988;18.664;2022-11-20T06:43:28;100216.94;;;5.62;94.51
69772;BME280;57046;45.988;18.664;2022-11-20T06:45:54;100214.56;;;5.42;94.58
69772;BME280;57046;45.988;18.664;2022-11-20T06:48:21;100218.75;;;5.48;94.49
69772;BME280;57046;45.988;18.664;2022-11-20T06:50:46;100216.38;;;5.46;94.15
69772;BME280;57046;45.988;18.664;2022-11-20T06:53:11;100221.97;;;5.31;94.77
69772;BME280;57046;45.988;18.664;2022-11-20T06:55:42;100228.63;;;5.52;95.06
69772;BME280;57046;45.988;18.664;2022-11-20T06:58:07;100214.50;;;5.47;95.07
69772;BME280;57046;45.988;18.664;2022-11-20T07:00:32;100228.53;;;5.57;94.02
69772;BME280;57046;45.988;18.664;2022-11-20T07:02:58;100230.81;;;5.50;94.38
69772;BME280;57046;45.988;18.664;2022-11-20T07:05:23;100231.94;;;5.44;94.73
69772;BME280;57046;45.988;18.664;2022-11-20T07:07:48;100213.66;;;5.33;95.45
69772;BME280;57046;45.988;18.664;2022-11-20T07:10:14;100205.72;;;5.60;94.18
69772;BME280;57046;45.988;18.664;2022-11-20T07:12:39;100201.16;;;5.60;93.77
69772;BME280;57046;45.988;18.664;2022-11-20T07:15:05;100198.84;;;5.54;93.81
69772;BME280;57046;45.988;18.664;2022-11-20T07:17:30;100221.66;;;5.51;93.51
69772;BME280;57046;45.988;18.664;2022-11-20T07:19:56;100217.81;;;5.57;94.28
69772;BME280;57046;45.988;18.664;2022-11-20T07:22:21;100225.00;;;5.43;94.26
69772;BME280;57046;45.988;18.664;2022-11-20T07:24:46;100216.50;;;5.55;93.62
69772;BME280;57046;45.988;18.664;2022-11-20T07:27:12;100231.22;;;5.57;94.16
69772;BME280;57046;45.988;18.664;2022-11-20T07:29:37;100227.00;;;5.70;93.35
69772;BME280;57046;45.988;18.664;2022-11-20T07:32:03;100231.97;;;5.77;93.03
69772;BME280;57046;45.988;18.664;2022-11-20T07:34:29;100221.16;;;5.68;93.36
69772;BME280;57046;45.988;18.664;2022-11-20T07:36:54;100225.78;;;5.62;92.82
69772;BME280;57046;45.988;18.664;2022-11-20T07:39:19;100230.91;;;5.78;93.22
69772;BME280;57046;45.988;18.664;2022-11-20T07:41:45;100227.50;;;5.72;92.72
69772;BME280;57046;45.988;18.664;2022-11-20T07:44:10;100240.09;;;5.72;92.18
69772;BME280;57046;45.988;18.664;2022-11-20T07:46:35;100252.50;;;5.68;92.11
69772;BME280;57046;45.988;18.664;2022-11-20T07:49:01;100254.03;;;5.55;92.32
69772;BME280;57046;45.988;18.664;2022-11-20T07:51:27;100284.59;;;5.54;92.50
69772;BME280;57046;45.988;18.664;2022-11-20T07:53:53;100291.34;;;5.33;93.18
69772;BME280;57046;45.988;18.664;2022-11-20T07:56:19;100313.06;;;5.50;92.73
69772;BME280;57046;45.988;18.664;2022-11-20T07:58:44;100305.91;;;5.64;92.53
69772;BME280;57046;45.988;18.664;2022-11-20T08:01:09;100286.75;;;5.52;92.44
69772;BME280;57046;45.988;18.664;2022-11-20T08:03:35;100309.94;;;5.43;92.52
69772;BME280;57046;45.988;18.664;2022-11-20T08:06:01;100300.59;;;5.59;92.72
69772;BME280;57046;45.988;18.664;2022-11-20T08:08:27;100296.38;;;5.72;92.06
69772;BME280;57046;45.988;18.664;2022-11-20T08:10:52;100291.91;;;5.86;91.83
69772;BME280;57046;45.988;18.664;2022-11-20T08:13:18;100300.00;;;5.81;91.95
69772;BME280;57046;45.988;18.664;2022-11-20T08:15:48;100295.53;;;5.76;91.13
69772;BME280;57046;45.988;18.664;2022-11-20T08:18:14;100308.13;;;5.76;91.24
69772;BME280;57046;45.988;18.664;2022-11-20T08:20:39;100288.88;;;5.74;91.63
69772;BME280;57046;45.988;18.664;2022-11-20T08:23:06;100289.66;;;5.74;92.22
69772;BME280;57046;45.988;18.664;2022-11-20T08:25:33;100282.63;;;5.97;91.62
69772;BME280;57046;45.988;18.664;2022-11-20T08:28:00;100283.50;;;5.92;92.80
69772;BME280;57046;45.988;18.664;2022-11-20T08:30:27;100292.56;;;5.78;92.54
69772;BME280;57046;45.988;18.664;2022-11-20T08:32:53;100304.84;;;5.79;92.60
69772;BME280;57046;45.988;18.664;2022-11-20T08:35:18;100326.69;;;5.91;92.23
69772;BME280;57046;45.988;18.664;2022-11-20T08:37:47;100336.69;;;6.04;92.79
69772;BME280;57046;45.988;18.664;2022-11-20T08:40:13;100342.91;;;6.18;92.31
69772;BME280;57046;45.988;18.664;2022-11-20T08:42:46;100338.75;;;6.26;92.23
69772;BME280;57046;45.988;18.664;2022-11-20T08:45:12;100325.28;;;6.12;91.37
69772;BME280;57046;45.988;18.664;2022-11-20T08:47:37;100335.13;;;6.17;92.06
69772;BME280;57046;45.988;18.664;2022-11-20T08:50:03;100329.91;;;6.25;92.04
69772;BME280;57046;45.988;18.664;2022-11-20T08:52:28;100330.19;;;6.24;91.37
69772;BME280;57046;45.988;18.664;2022-11-20T08:54:53;100328.78;;;6.26;91.52
69772;BME280;57046;45.988;18.664;2022-11-20T08:57:19;100321.50;;;6.13;91.90
69772;BME280;57046;45.988;18.664;2022-11-20T08:59:44;100326.69;;;6.23;91.34
69772;BME280;57046;45.988;18.664;2022-11-20T09:02:09;100325.09;;;6.08;91.81
69772;BME280;57046;45.988;18.664;2022-11-20T09:04:35;100322.81;;;6.16;92.09
69772;BME280;57046;45.988;18.664;2022-11-20T09:07:00;100323.94;;;6.28;91.66
69772;BME280;57046;45.988;18.664;2022-11-20T09:09:25;100326.53;;;6.33;92.23
69772;BME280;57046;45.988;18.664;2022-11-20T09:11:51;100330.44;;;6.08;93.49
69772;BME280;57046;45.988;18.664;2022-11-20T09:14:16;100336.44;;;6.19;93.32
69772;BME280;57046;45.988;18.664;2022-11-20T09:16:41;100337.53;;;6.18;93.82
69772;BME280;57046;45.988;18.664;2022-11-20T09:19:07;100348.06;;;6.14;93.58
69772;BME280;57046;45.988;18.664;2022-11-20T09:21:32;100354.75;;;6.31;93.77
69772;BME280;57046;45.988;18.664;2022-11-20T09:23:57;100351.47;;;6.34;93.98
69772;BME280;57046;45.988;18.664;2022-11-20T09:26:23;100348.31;;;6.13;93.49
69772;BME280;57046;45.988;18.664;2022-11-20T09:28:48;100341.13;;;6.27;94.34
69772;BME280;57046;45.988;18.664;2022-11-20T09:31:23;100341.44;;;6.26;94.15
69772;BME280;57046;45.988;18.664;2022-11-20T09:33:49;100346.22;;;6.29;93.90
69772;BME280;57046;45.988;18.664;2022-11-20T09:36:14;100346.13;;;6.34;93.45
69772;BME280;57046;45.988;18.664;2022-11-20T09:38:40;100351.63;;;6.42;94.17
69772;BME280;57046;45.988;18.664;2022-11-20T09:41:06;100353.72;;;6.59;93.85
69772;BME280;57046;45.988;18.664;2022-11-20T09:46:42;100349.69;;;6.75;93.35
69772;BME280;57046;45.988;18.664;2022-11-20T09:49:21;100341.81;;;6.79;93.15
69772;BME280;57046;45.988;18.664;2022-11-20T09:52:00;100340.53;;;6.90;93.83
69772;BME280;57046;45.988;18.664;2022-11-20T09:54:35;100344.59;;;6.87;93.50
69772;BME280;57046;45.988;18.664;2022-11-20T09:57:08;100351.19;;;6.95;93.87
69772;BME280;57046;45.988;18.664;2022-11-20T09:59:40;100365.22;;;7.05;93.47
69772;BME280;57046;45.988;18.664;2022-11-20T10:02:35;100345.91;;;7.03;92.16
69772;BME280;57046;45.988;18.664;2022-11-20T10:05:06;100359.22;;;7.22;93.21
69772;BME280;57046;45.988;18.664;2022-11-20T10:10:33;100351.88;;;7.14;91.69
69772;BME280;57046;45.988;18.664;2022-11-20T10:15:53;100327.72;;;7.00;92.24
69772;BME280;57046;45.988;18.664;2022-11-20T10:27:12;100370.38;;;7.02;91.89
69772;BME280;57046;45.988;18.664;2022-11-20T10:29:49;100383.59;;;6.98;91.30
69772;BME280;57046;45.988;18.664;2022-11-20T10:32:20;100367.91;;;7.05;91.86
69772;BME280;57046;45.988;18.664;2022-11-20T10:34:59;100350.50;;;7.16;91.48
69772;BME280;57046;45.988;18.664;2022-11-20T10:37:26;100337.53;;;7.05;91.31
69772;BME280;57046;45.988;18.664;2022-11-20T10:42:44;100348.81;;;7.21;91.21
69772;BME280;57046;45.988;18.664;2022-11-20T10:47:44;100312.19;;;6.97;90.44
69772;BME280;57046;45.988;18.664;2022-11-20T10:50:14;100345.09;;;7.30;89.98
69772;BME280;57046;45.988;18.664;2022-11-20T11:00:18;100370.38;;;7.29;89.59
69772;BME280;57046;45.988;18.664;2022-11-20T11:02:51;100374.53;;;7.35;89.40
69772;BME280;57046;45.988;18.664;2022-11-20T11:07:46;100368.19;;;7.31;89.14
69772;BME280;57046;45.988;18.664;2022-11-20T11:13:00;100346.91;;;7.35;89.34
69772;BME280;57046;45.988;18.664;2022-11-20T11:15:37;100343.69;;;7.46;88.55
69772;BME280;57046;45.988;18.664;2022-11-20T11:18:03;100325.66;;;7.47;89.04
69772;BME280;57046;45.988;18.664;2022-11-20T11:20:29;100338.41;;;7.55;89.23
69772;BME280;57046;45.988;18.664;2022-11-20T11:22:58;100337.94;;;7.75;89.21
69772;BME280;57046;45.988;18.664;2022-11-20T11:25:33;100336.75;;;9.35;100.00
69772;BME280;57046;45.988;18.664;2022-11-20T11:28:20;100329.38;;;9.01;91.48
69772;BME280;57046;45.988;18.664;2022-11-20T11:30:46;100340.47;;;8.38;88.51
69772;BME280;57046;45.988;18.664;2022-11-20T11:33:19;100345.81;;;8.30;95.66
69772;BME280;57046;45.988;18.664;2022-11-20T11:35:47;100351.72;;;10.10;97.51
69772;BME280;57046;45.988;18.664;2022-11-20T11:38:16;100350.84;;;9.24;91.42
69772;BME280;57046;45.988;18.664;2022-11-20T11:40:43;100335.66;;;8.57;86.61
69772;BME280;57046;45.988;18.664;2022-11-20T11:43:36;100339.09;;;8.27;85.49
69772;BME280;57046;45.988;18.664;2022-11-20T11:46:08;100339.91;;;8.50;93.45
69772;BME280;57046;45.988;18.664;2022-11-20T11:48:40;100325.84;;;8.08;87.61
69772;BME280;57046;45.988;18.664;2022-11-20T11:51:08;100339.25;;;8.44;95.55
69772;BME280;57046;45.988;18.664;2022-11-20T11:53:37;100336.00;;;8.95;100.00
69772;BME280;57046;45.988;18.664;2022-11-20T11:56:09;100333.13;;;9.91;100.00
69772;BME280;57046;45.988;18.664;2022-11-20T11:58:52;100342.78;;;10.99;99.09
69772;BME280;57046;45.988;18.664;2022-11-20T12:07:01;100332.84;;;9.93;84.42
69772;BME280;57046;45.988;18.664;2022-11-20T12:09:35;100322.19;;;9.62;85.54
69772;BME280;57046;45.988;18.664;2022-11-20T12:12:12;100338.53;;;9.65;84.48
69772;BME280;57046;45.988;18.664;2022-11-20T12:14:45;100333.47;;;9.55;90.71
69772;BME280;57046;45.988;18.664;2022-11-20T12:17:13;100328.06;;;9.64;88.69
69772;BME280;57046;45.988;18.664;2022-11-20T12:19:39;100322.97;;;9.45;86.87
69772;BME280;57046;45.988;18.664;2022-11-20T12:24:49;100305.19;;;10.04;91.50
69772;BME280;57046;45.988;18.664;2022-11-20T12:27:41;100310.91;;;9.51;84.32
69772;BME280;57046;45.988;18.664;2022-11-20T12:30:11;100309.81;;;9.78;93.90
69772;BME280;57046;45.988;18.664;2022-11-20T12:35:57;100330.91;;;9.85;82.59
69772;BME280;57046;45.988;18.664;2022-11-20T12:44:31;100323.28;;;9.44;83.91
69772;BME280;57046;45.988;18.664;2022-11-20T12:50:02;100302.63;;;9.31;86.39
69772;BME280;57046;45.988;18.664;2022-11-20T12:52:56;100336.31;;;9.67;86.23
69772;BME280;57046;45.988;18.664;2022-11-20T13:01:17;100309.66;;;9.66;79.93
69772;BME280;57046;45.988;18.664;2022-11-20T13:03:52;100327.41;;;9.50;81.09
69772;BME280;57046;45.988;18.664;2022-11-20T13:06:24;100323.94;;;9.75;82.92
69772;BME280;57046;45.988;18.664;2022-11-20T13:08:53;100320.56;;;9.35;79.24
69772;BME280;57046;45.988;18.664;2022-11-20T13:19:02;100317.81;;;9.09;82.13
69772;BME280;57046;45.988;18.664;2022-11-20T13:21:40;100318.75;;;9.05;81.95
69772;BME280;57046;45.988;18.664;2022-11-20T13:24:18;100328.75;;;9.04;82.10
69772;BME280;57046;45.988;18.664;2022-11-20T13:26:46;100336.97;;;8.99;82.06
69772;BME280;57046;45.988;18.664;2022-11-20T13:29:16;100333.13;;;8.92;83.38
69772;BME280;57046;45.988;18.664;2022-11-20T13:31:44;100340.25;;;8.88;82.31
69772;BME280;57046;45.988;18.664;2022-11-20T13:34:30;100327.94;;;8.64;82.63
69772;BME280;57046;45.988;18.664;2022-11-20T13:36:58;100339.38;;;8.70;83.24
69772;BME280;57046;45.988;18.664;2022-11-20T13:39:29;100309.69;;;8.61;82.32
69772;BME280;57046;45.988;18.664;2022-11-20T13:41:57;100332.94;;;8.88;83.36
69772;BME280;57046;45.988;18.664;2022-11-20T13:46:54;100333.06;;;8.75;83.97
69772;BME280;57046;45.988;18.664;2022-11-20T13:49:31;100335.09;;;8.69;83.53
69772;BME280;57046;45.988;18.664;2022-11-20T13:59:58;100343.25;;;8.86;84.07
69772;BME280;57046;45.988;18.664;2022-11-20T14:02:28;100333.75;;;8.89;84.35
69772;BME280;57046;45.988;18.664;2022-11-20T14:05:00;100339.19;;;8.97;85.33
69772;BME280;57046;45.988;18.664;2022-11-20T14:07:39;100327.09;;;8.95;85.97
69772;BME280;57046;45.988;18.664;2022-11-20T14:10:17;100343.25;;;8.86;85.12
69772;BME280;57046;45.988;18.664;2022-11-20T14:12:44;100351.34;;;8.86;84.90
69772;BME280;57046;45.988;18.664;2022-11-20T14:15:24;100340.22;;;8.79;84.37
69772;BME280;57046;45.988;18.664;2022-11-20T14:17:49;100346.56;;;8.83;84.73
69772;BME280;57046;45.988;18.664;2022-11-20T14:20:15;100350.69;;;8.81;83.98
69772;BME280;57046;45.988;18.664;2022-11-20T14:22:48;100356.94;;;8.67;85.13
69772;BME280;57046;45.988;18.664;2022-11-20T14:27:40;100354.66;;;8.52;86.48
69772;BME280;57046;45.988;18.664;2022-11-20T14:30:22;100368.59;;;8.54;86.22